sensor_id;sensor_type;location;lat;lon;timestamp;P1;durP1;ratioP1;P2;durP2;ratioP2
77466;SDS011;66564;42.482;25.548;2023-08-01T00:02:18;8.88;;;4.78;;
77466;SDS011;66564;42.482;25.548;2023-08-01T00:04:44;5.15;;;3.90;;
77466;SDS011;66564;42.482;25.548;2023-08-01T00:07:09;5.45;;;4.50;;
77466;SDS011;66564;42.482;25.548;2023-08-01T00:09:35;6.47;;;4.00;;
77466;SDS011;66564;42.482;25.548;2023-08-01T00:12:00;6.15;;;4.40;;
77466;SDS011;66564;42.482;25.548;2023-08-01T00:14:26;5.65;;;4.32;;
77466;SDS011;66564;42.482;25.548;2023-08-01T00:16:51;4.90;;;4.10;;
77466;SDS011;66564;42.482;25.548;2023-08-01T00:19:17;5.43;;;4.13;;
77466;SDS011;66564;42.482;25.548;2023-08-01T00:21:43;6.32;;;4.47;;
77466;SDS011;66564;42.482;25.548;2023-08-01T00:24:08;6.10;;;4.43;;
77466;SDS011;66564;42.482;25.548;2023-08-01T00:26:34;4.60;;;3.65;;
77466;SDS011;66564;42.482;25.548;2023-08-01T00:29:00;6.40;;;4.07;;
77466;SDS011;66564;42.482;25.548;2023-08-01T00:31:26;4.50;;;4.05;;
77466;SDS011;66564;42.482;25.548;2023-08-01T00:33:51;5.40;;;3.58;;
77466;SDS011;66564;42.482;25.548;2023-08-01T00:36:17;4.82;;;3.75;;
77466;SDS011;66564;42.482;25.548;2023-08-01T00:38:42;5.05;;;4.10;;
77466;SDS011;66564;42.482;25.548;2023-08-01T00:41:08;5.03;;;4.47;;
77466;SDS011;66564;42.482;25.548;2023-08-01T00:43:34;5.28;;;4.15;;
77466;SDS011;66564;42.482;25.548;2023-08-01T00:46:00;6.35;;;3.67;;
77466;SDS011;66564;42.482;25.548;2023-08-01T00:48:28;4.45;;;3.70;;
77466;SDS011;66564;42.482;25.548;2023-08-01T00:50:55;6.00;;;3.85;;
77466;SDS011;66564;42.482;25.548;2023-08-01T00:53:21;6.00;;;4.30;;
77466;SDS011;66564;42.482;25.548;2023-08-01T00:55:47;6.10;;;3.72;;
77466;SDS011;66564;42.482;25.548;2023-08-01T00:58:13;5.28;;;4.05;;
77466;SDS011;66564;42.482;25.548;2023-08-01T01:00:38;5.40;;;4.07;;
77466;SDS011;66564;42.482;25.548;2023-08-01T01:03:04;5.13;;;4.10;;
77466;SDS011;66564;42.482;25.548;2023-08-01T01:05:31;3.70;;;3.35;;
77466;SDS011;66564;42.482;25.548;2023-08-01T01:08:02;4.20;;;3.50;;
77466;SDS011;66564;42.482;25.548;2023-08-01T01:10:28;5.47;;;3.38;;
77466;SDS011;66564;42.482;25.548;2023-08-01T01:12:54;6.07;;;4.47;;
77466;SDS011;66564;42.482;25.548;2023-08-01T01:15:20;4.78;;;3.70;;
77466;SDS011;66564;42.482;25.548;2023-08-01T01:17:45;4.55;;;3.92;;
77466;SDS011;66564;42.482;25.548;2023-08-01T01:20:11;4.65;;;3.83;;
77466;SDS011;66564;42.482;25.548;2023-08-01T01:22:36;4.53;;;3.97;;
77466;SDS011;66564;42.482;25.548;2023-08-01T01:25:03;7.88;;;3.85;;
77466;SDS011;66564;42.482;25.548;2023-08-01T01:27:30;3.88;;;3.42;;
77466;SDS011;66564;42.482;25.548;2023-08-01T01:29:56;5.30;;;3.70;;
77466;SDS011;66564;42.482;25.548;2023-08-01T01:32:22;6.88;;;3.92;;
77466;SDS011;66564;42.482;25.548;2023-08-01T01:34:48;7.00;;;3.92;;
77466;SDS011;66564;42.482;25.548;2023-08-01T01:37:13;6.20;;;3.58;;
77466;SDS011;66564;42.482;25.548;2023-08-01T01:39:39;4.65;;;3.50;;
77466;SDS011;66564;42.482;25.548;2023-08-01T01:42:05;4.07;;;3.40;;
77466;SDS011;66564;42.482;25.548;2023-08-01T01:44:31;4.72;;;3.72;;
77466;SDS011;66564;42.482;25.548;2023-08-01T01:46:56;6.15;;;3.72;;
77466;SDS011;66564;42.482;25.548;2023-08-01T01:49:21;6.20;;;3.63;;
77466;SDS011;66564;42.482;25.548;2023-08-01T01:51:47;4.90;;;3.72;;
77466;SDS011;66564;42.482;25.548;2023-08-01T01:54:12;4.78;;;3.72;;
77466;SDS011;66564;42.482;25.548;2023-08-01T01:56:38;6.55;;;3.90;;
77466;SDS011;66564;42.482;25.548;2023-08-01T01:59:03;6.28;;;3.67;;
77466;SDS011;66564;42.482;25.548;2023-08-01T02:01:29;5.50;;;3.95;;
77466;SDS011;66564;42.482;25.548;2023-08-01T02:03:54;6.07;;;3.78;;
77466;SDS011;66564;42.482;25.548;2023-08-01T02:06:19;5.10;;;3.55;;
77466;SDS011;66564;42.482;25.548;2023-08-01T02:08:45;5.35;;;3.88;;
77466;SDS011;66564;42.482;25.548;2023-08-01T02:11:10;6.38;;;3.85;;
77466;SDS011;66564;42.482;25.548;2023-08-01T02:13:35;4.65;;;4.00;;
77466;SDS011;66564;42.482;25.548;2023-08-01T02:16:01;4.60;;;3.90;;
77466;SDS011;66564;42.482;25.548;2023-08-01T02:18:26;4.95;;;3.80;;
77466;SDS011;66564;42.482;25.548;2023-08-01T02:20:52;4.78;;;3.20;;
77466;SDS011;66564;42.482;25.548;2023-08-01T02:23:17;4.07;;;3.50;;
77466;SDS011;66564;42.482;25.548;2023-08-01T02:25:43;5.10;;;3.90;;
77466;SDS011;66564;42.482;25.548;2023-08-01T02:28:08;5.38;;;3.65;;
77466;SDS011;66564;42.482;25.548;2023-08-01T02:30:34;6.38;;;3.83;;
77466;SDS011;66564;42.482;25.548;2023-08-01T02:33:00;6.40;;;3.75;;
77466;SDS011;66564;42.482;25.548;2023-08-01T02:35:26;4.60;;;4.15;;
77466;SDS011;66564;42.482;25.548;2023-08-01T02:37:53;4.20;;;3.55;;
77466;SDS011;66564;42.482;25.548;2023-08-01T02:40:19;4.63;;;3.63;;
77466;SDS011;66564;42.482;25.548;2023-08-01T02:42:44;5.18;;;3.88;;
77466;SDS011;66564;42.482;25.548;2023-08-01T02:45:09;5.88;;;3.70;;
77466;SDS011;66564;42.482;25.548;2023-08-01T02:47:35;4.63;;;3.72;;
77466;SDS011;66564;42.482;25.548;2023-08-01T02:50:00;6.28;;;3.50;;
77466;SDS011;66564;42.482;25.548;2023-08-01T02:52:26;4.63;;;3.45;;
77466;SDS011;66564;42.482;25.548;2023-08-01T02:54:51;6.65;;;4.50;;
77466;SDS011;66564;42.482;25.548;2023-08-01T02:57:17;4.88;;;3.75;;
77466;SDS011;66564;42.482;25.548;2023-08-01T02:59:43;4.10;;;3.20;;
77466;SDS011;66564;42.482;25.548;2023-08-01T03:02:08;6.93;;;3.70;;
77466;SDS011;66564;42.482;25.548;2023-08-01T03:04:33;5.07;;;3.92;;
77466;SDS011;66564;42.482;25.548;2023-08-01T03:06:59;4.65;;;3.83;;
77466;SDS011;66564;42.482;25.548;2023-08-01T03:09:25;6.20;;;3.53;;
77466;SDS011;66564;42.482;25.548;2023-08-01T03:11:50;6.78;;;3.88;;
77466;SDS011;66564;42.482;25.548;2023-08-01T03:14:16;4.68;;;4.00;;
77466;SDS011;66564;42.482;25.548;2023-08-01T03:16:42;4.47;;;3.88;;
77466;SDS011;66564;42.482;25.548;2023-08-01T03:19:07;4.78;;;3.72;;
77466;SDS011;66564;42.482;25.548;2023-08-01T03:21:34;4.88;;;4.05;;
77466;SDS011;66564;42.482;25.548;2023-08-01T03:24:00;4.53;;;3.75;;
77466;SDS011;66564;42.482;25.548;2023-08-01T03:26:26;5.22;;;3.85;;
77466;SDS011;66564;42.482;25.548;2023-08-01T03:28:53;6.70;;;4.18;;
77466;SDS011;66564;42.482;25.548;2023-08-01T03:31:20;6.57;;;3.70;;
77466;SDS011;66564;42.482;25.548;2023-08-01T03:33:46;4.55;;;3.65;;
77466;SDS011;66564;42.482;25.548;2023-08-01T03:36:12;6.13;;;3.78;;
77466;SDS011;66564;42.482;25.548;2023-08-01T03:38:37;4.60;;;3.47;;
77466;SDS011;66564;42.482;25.548;2023-08-01T03:41:03;4.80;;;3.35;;
77466;SDS011;66564;42.482;25.548;2023-08-01T03:43:29;5.53;;;3.50;;
77466;SDS011;66564;42.482;25.548;2023-08-01T03:45:54;5.35;;;4.10;;
77466;SDS011;66564;42.482;25.548;2023-08-01T03:48:20;5.35;;;3.40;;
77466;SDS011;66564;42.482;25.548;2023-08-01T03:50:45;4.40;;;3.72;;
77466;SDS011;66564;42.482;25.548;2023-08-01T03:53:11;5.28;;;4.20;;
77466;SDS011;66564;42.482;25.548;2023-08-01T03:55:36;4.03;;;3.38;;
77466;SDS011;66564;42.482;25.548;2023-08-01T03:58:02;7.70;;;3.67;;
77466;SDS011;66564;42.482;25.548;2023-08-01T04:00:28;7.25;;;5.22;;
77466;SDS011;66564;42.482;25.548;2023-08-01T04:05:23;4.18;;;3.60;;
77466;SDS011;66564;42.482;25.548;2023-08-01T04:07:49;5.28;;;3.80;;
77466;SDS011;66564;42.482;25.548;2023-08-01T04:10:14;6.85;;;3.67;;
77466;SDS011;66564;42.482;25.548;2023-08-01T04:12:40;4.63;;;3.72;;
77466;SDS011;66564;42.482;25.548;2023-08-01T04:15:07;5.10;;;3.78;;
77466;SDS011;66564;42.482;25.548;2023-08-01T04:17:33;4.93;;;3.78;;
77466;SDS011;66564;42.482;25.548;2023-08-01T04:19:59;7.22;;;4.05;;
77466;SDS011;66564;42.482;25.548;2023-08-01T04:22:24;5.10;;;3.70;;
77466;SDS011;66564;42.482;25.548;2023-08-01T04:24:50;5.80;;;4.28;;
77466;SDS011;66564;42.482;25.548;2023-08-01T04:27:16;7.45;;;3.90;;
77466;SDS011;66564;42.482;25.548;2023-08-01T04:29:41;8.05;;;3.58;;
77466;SDS011;66564;42.482;25.548;2023-08-01T04:32:07;4.88;;;3.50;;
77466;SDS011;66564;42.482;25.548;2023-08-01T04:34:32;5.40;;;4.15;;
77466;SDS011;66564;42.482;25.548;2023-08-01T04:36:58;5.00;;;3.80;;
77466;SDS011;66564;42.482;25.548;2023-08-01T04:39:23;5.18;;;3.92;;
77466;SDS011;66564;42.482;25.548;2023-08-01T04:41:49;4.88;;;4.05;;
77466;SDS011;66564;42.482;25.548;2023-08-01T04:44:15;7.50;;;3.83;;
77466;SDS011;66564;42.482;25.548;2023-08-01T04:46:40;5.88;;;3.50;;
77466;SDS011;66564;42.482;25.548;2023-08-01T04:49:06;4.53;;;3.38;;
77466;SDS011;66564;42.482;25.548;2023-08-01T04:51:31;5.70;;;3.65;;
77466;SDS011;66564;42.482;25.548;2023-08-01T04:53:57;6.03;;;3.40;;
77466;SDS011;66564;42.482;25.548;2023-08-01T04:56:22;9.10;;;4.00;;
77466;SDS011;66564;42.482;25.548;2023-08-01T04:58:48;5.63;;;2.95;;
77466;SDS011;66564;42.482;25.548;2023-08-01T05:01:13;5.25;;;3.53;;
77466;SDS011;66564;42.482;25.548;2023-08-01T05:03:38;4.53;;;3.20;;
77466;SDS011;66564;42.482;25.548;2023-08-01T05:06:04;7.57;;;4.13;;
77466;SDS011;66564;42.482;25.548;2023-08-01T05:08:29;4.50;;;3.58;;
77466;SDS011;66564;42.482;25.548;2023-08-01T05:10:55;5.53;;;3.40;;
77466;SDS011;66564;42.482;25.548;2023-08-01T05:13:20;5.65;;;3.50;;
77466;SDS011;66564;42.482;25.548;2023-08-01T05:15:46;7.22;;;3.60;;
77466;SDS011;66564;42.482;25.548;2023-08-01T05:18:17;4.07;;;3.35;;
77466;SDS011;66564;42.482;25.548;2023-08-01T05:20:43;4.22;;;3.40;;
77466;SDS011;66564;42.482;25.548;2023-08-01T05:23:08;5.10;;;3.08;;
77466;SDS011;66564;42.482;25.548;2023-08-01T05:25:34;4.05;;;3.20;;
77466;SDS011;66564;42.482;25.548;2023-08-01T05:28:00;8.52;;;4.30;;
77466;SDS011;66564;42.482;25.548;2023-08-01T05:30:25;5.82;;;4.10;;
77466;SDS011;66564;42.482;25.548;2023-08-01T05:32:51;7.55;;;5.72;;
77466;SDS011;66564;42.482;25.548;2023-08-01T05:35:17;6.88;;;5.93;;
77466;SDS011;66564;42.482;25.548;2023-08-01T05:37:43;8.70;;;6.85;;
77466;SDS011;66564;42.482;25.548;2023-08-01T05:40:09;12.32;;;6.95;;
77466;SDS011;66564;42.482;25.548;2023-08-01T05:42:34;9.38;;;6.93;;
77466;SDS011;66564;42.482;25.548;2023-08-01T05:45:00;6.22;;;5.25;;
77466;SDS011;66564;42.482;25.548;2023-08-01T05:47:25;5.90;;;5.30;;
77466;SDS011;66564;42.482;25.548;2023-08-01T05:49:51;7.82;;;6.22;;
77466;SDS011;66564;42.482;25.548;2023-08-01T05:52:16;9.35;;;6.00;;
77466;SDS011;66564;42.482;25.548;2023-08-01T05:54:42;9.23;;;6.03;;
77466;SDS011;66564;42.482;25.548;2023-08-01T05:57:08;5.78;;;4.85;;
77466;SDS011;66564;42.482;25.548;2023-08-01T05:59:33;6.35;;;4.80;;
77466;SDS011;66564;42.482;25.548;2023-08-01T06:01:59;7.05;;;4.85;;
77466;SDS011;66564;42.482;25.548;2023-08-01T06:04:25;7.03;;;4.70;;
77466;SDS011;66564;42.482;25.548;2023-08-01T06:06:51;6.45;;;4.82;;
77466;SDS011;66564;42.482;25.548;2023-08-01T06:09:18;5.97;;;4.18;;
77466;SDS011;66564;42.482;25.548;2023-08-01T06:11:44;6.75;;;5.35;;
77466;SDS011;66564;42.482;25.548;2023-08-01T06:14:09;6.95;;;5.50;;
77466;SDS011;66564;42.482;25.548;2023-08-01T06:16:35;8.07;;;5.35;;
77466;SDS011;66564;42.482;25.548;2023-08-01T06:19:01;7.03;;;5.38;;
77466;SDS011;66564;42.482;25.548;2023-08-01T06:21:26;27.20;;;6.85;;
77466;SDS011;66564;42.482;25.548;2023-08-01T06:23:52;21.00;;;7.10;;
77466;SDS011;66564;42.482;25.548;2023-08-01T06:26:17;20.25;;;7.25;;
77466;SDS011;66564;42.482;25.548;2023-08-01T06:28:43;7.07;;;4.70;;
77466;SDS011;66564;42.482;25.548;2023-08-01T06:31:08;27.98;;;5.93;;
77466;SDS011;66564;42.482;25.548;2023-08-01T06:33:34;6.20;;;4.43;;
77466;SDS011;66564;42.482;25.548;2023-08-01T06:35:59;28.35;;;6.53;;
77466;SDS011;66564;42.482;25.548;2023-08-01T06:38:26;6.38;;;5.07;;
77466;SDS011;66564;42.482;25.548;2023-08-01T06:40:51;8.23;;;4.95;;
77466;SDS011;66564;42.482;25.548;2023-08-01T06:43:18;7.65;;;4.75;;
77466;SDS011;66564;42.482;25.548;2023-08-01T06:45:44;6.55;;;5.03;;
77466;SDS011;66564;42.482;25.548;2023-08-01T06:48:09;4.97;;;4.47;;
77466;SDS011;66564;42.482;25.548;2023-08-01T06:50:35;9.07;;;5.07;;
77466;SDS011;66564;42.482;25.548;2023-08-01T06:53:00;7.25;;;5.35;;
77466;SDS011;66564;42.482;25.548;2023-08-01T06:55:26;7.82;;;5.72;;
77466;SDS011;66564;42.482;25.548;2023-08-01T06:57:52;6.03;;;5.00;;
77466;SDS011;66564;42.482;25.548;2023-08-01T07:00:17;7.38;;;5.03;;
77466;SDS011;66564;42.482;25.548;2023-08-01T07:02:43;7.57;;;4.88;;
77466;SDS011;66564;42.482;25.548;2023-08-01T07:05:08;6.57;;;4.97;;
77466;SDS011;66564;42.482;25.548;2023-08-01T07:07:33;5.47;;;4.90;;
77466;SDS011;66564;42.482;25.548;2023-08-01T07:09:59;6.93;;;4.95;;
77466;SDS011;66564;42.482;25.548;2023-08-01T07:12:25;7.30;;;5.78;;
77466;SDS011;66564;42.482;25.548;2023-08-01T07:14:51;5.88;;;4.47;;
77466;SDS011;66564;42.482;25.548;2023-08-01T07:17:16;5.75;;;4.70;;
77466;SDS011;66564;42.482;25.548;2023-08-01T07:19:43;20.45;;;6.13;;
77466;SDS011;66564;42.482;25.548;2023-08-01T07:22:08;13.65;;;5.68;;
77466;SDS011;66564;42.482;25.548;2023-08-01T07:24:34;7.57;;;4.97;;
77466;SDS011;66564;42.482;25.548;2023-08-01T07:26:59;7.10;;;5.20;;
77466;SDS011;66564;42.482;25.548;2023-08-01T07:29:25;9.75;;;4.90;;
77466;SDS011;66564;42.482;25.548;2023-08-01T07:31:51;12.50;;;5.25;;
77466;SDS011;66564;42.482;25.548;2023-08-01T07:34:17;10.43;;;5.68;;
77466;SDS011;66564;42.482;25.548;2023-08-01T07:36:45;6.97;;;5.25;;
77466;SDS011;66564;42.482;25.548;2023-08-01T07:39:13;6.25;;;5.47;;
77466;SDS011;66564;42.482;25.548;2023-08-01T07:41:39;7.13;;;5.88;;
77466;SDS011;66564;42.482;25.548;2023-08-01T07:44:04;7.57;;;5.35;;
77466;SDS011;66564;42.482;25.548;2023-08-01T07:46:31;6.93;;;5.72;;
77466;SDS011;66564;42.482;25.548;2023-08-01T07:48:56;8.70;;;7.53;;
77466;SDS011;66564;42.482;25.548;2023-08-01T07:51:22;6.85;;;5.70;;
77466;SDS011;66564;42.482;25.548;2023-08-01T07:53:48;9.68;;;7.85;;
77466;SDS011;66564;42.482;25.548;2023-08-01T07:56:15;7.55;;;6.70;;
77466;SDS011;66564;42.482;25.548;2023-08-01T07:58:41;7.22;;;6.53;;
77466;SDS011;66564;42.482;25.548;2023-08-01T08:01:06;6.47;;;5.72;;
77466;SDS011;66564;42.482;25.548;2023-08-01T08:03:32;6.55;;;5.75;;
77466;SDS011;66564;42.482;25.548;2023-08-01T08:05:57;7.40;;;6.50;;
77466;SDS011;66564;42.482;25.548;2023-08-01T08:08:23;7.50;;;6.13;;
77466;SDS011;66564;42.482;25.548;2023-08-01T08:10:49;6.88;;;6.18;;
77466;SDS011;66564;42.482;25.548;2023-08-01T08:13:15;8.70;;;6.97;;
77466;SDS011;66564;42.482;25.548;2023-08-01T08:15:40;8.07;;;7.20;;
77466;SDS011;66564;42.482;25.548;2023-08-01T08:18:05;8.13;;;5.80;;
77466;SDS011;66564;42.482;25.548;2023-08-01T08:20:34;9.82;;;6.70;;
77466;SDS011;66564;42.482;25.548;2023-08-01T08:23:07;7.03;;;6.03;;
77466;SDS011;66564;42.482;25.548;2023-08-01T08:25:32;8.07;;;6.43;;
77466;SDS011;66564;42.482;25.548;2023-08-01T08:27:58;6.95;;;6.25;;
77466;SDS011;66564;42.482;25.548;2023-08-01T08:30:24;6.53;;;5.30;;
77466;SDS011;66564;42.482;25.548;2023-08-01T08:32:49;11.52;;;6.95;;
77466;SDS011;66564;42.482;25.548;2023-08-01T08:35:15;9.52;;;6.22;;
77466;SDS011;66564;42.482;25.548;2023-08-01T08:37:41;7.82;;;6.65;;
77466;SDS011;66564;42.482;25.548;2023-08-01T08:40:06;7.80;;;6.40;;
77466;SDS011;66564;42.482;25.548;2023-08-01T08:42:33;17.60;;;9.30;;
77466;SDS011;66564;42.482;25.548;2023-08-01T08:45:19;8.25;;;7.45;;
77466;SDS011;66564;42.482;25.548;2023-08-01T08:47:45;13.93;;;7.05;;
77466;SDS011;66564;42.482;25.548;2023-08-01T08:50:18;9.52;;;7.45;;
77466;SDS011;66564;42.482;25.548;2023-08-01T08:52:44;8.88;;;7.22;;
77466;SDS011;66564;42.482;25.548;2023-08-01T08:55:11;6.85;;;6.10;;
77466;SDS011;66564;42.482;25.548;2023-08-01T08:57:36;8.70;;;7.03;;
77466;SDS011;66564;42.482;25.548;2023-08-01T09:00:04;6.88;;;6.18;;
77466;SDS011;66564;42.482;25.548;2023-08-01T09:02:30;7.10;;;6.40;;
77466;SDS011;66564;42.482;25.548;2023-08-01T09:05:00;9.55;;;7.30;;
77466;SDS011;66564;42.482;25.548;2023-08-01T09:07:27;10.60;;;7.07;;
77466;SDS011;66564;42.482;25.548;2023-08-01T09:09:55;8.60;;;7.03;;
77466;SDS011;66564;42.482;25.548;2023-08-01T09:12:21;9.20;;;7.35;;
77466;SDS011;66564;42.482;25.548;2023-08-01T09:14:46;6.90;;;6.20;;
77466;SDS011;66564;42.482;25.548;2023-08-01T09:17:15;8.32;;;6.38;;
77466;SDS011;66564;42.482;25.548;2023-08-01T09:19:43;8.10;;;6.15;;
77466;SDS011;66564;42.482;25.548;2023-08-01T09:22:12;6.60;;;5.85;;
77466;SDS011;66564;42.482;25.548;2023-08-01T09:24:38;7.93;;;7.07;;
77466;SDS011;66564;42.482;25.548;2023-08-01T09:27:04;13.52;;;7.30;;
77466;SDS011;66564;42.482;25.548;2023-08-01T09:29:30;11.07;;;6.82;;
77466;SDS011;66564;42.482;25.548;2023-08-01T09:31:57;10.55;;;7.30;;
77466;SDS011;66564;42.482;25.548;2023-08-01T09:34:26;8.00;;;7.25;;
77466;SDS011;66564;42.482;25.548;2023-08-01T09:36:58;8.75;;;7.00;;
77466;SDS011;66564;42.482;25.548;2023-08-01T09:39:26;8.10;;;7.00;;
77466;SDS011;66564;42.482;25.548;2023-08-01T09:41:58;8.40;;;7.28;;
77466;SDS011;66564;42.482;25.548;2023-08-01T09:44:28;9.13;;;7.50;;
77466;SDS011;66564;42.482;25.548;2023-08-01T09:47:04;8.32;;;7.50;;
77466;SDS011;66564;42.482;25.548;2023-08-01T09:49:33;20.13;;;9.20;;
77466;SDS011;66564;42.482;25.548;2023-08-01T09:51:59;19.45;;;8.30;;
77466;SDS011;66564;42.482;25.548;2023-08-01T09:54:26;15.90;;;7.68;;
77466;SDS011;66564;42.482;25.548;2023-08-01T09:56:52;9.52;;;8.23;;
77466;SDS011;66564;42.482;25.548;2023-08-01T09:59:22;14.18;;;9.57;;
77466;SDS011;66564;42.482;25.548;2023-08-01T10:01:49;18.83;;;10.40;;
77466;SDS011;66564;42.482;25.548;2023-08-01T10:04:21;9.38;;;8.30;;
77466;SDS011;66564;42.482;25.548;2023-08-01T10:06:53;10.55;;;8.30;;
77466;SDS011;66564;42.482;25.548;2023-08-01T10:09:22;9.48;;;8.00;;
77466;SDS011;66564;42.482;25.548;2023-08-01T10:11:49;10.20;;;9.20;;
77466;SDS011;66564;42.482;25.548;2023-08-01T10:14:16;14.48;;;8.48;;
77466;SDS011;66564;42.482;25.548;2023-08-01T10:16:46;8.98;;;8.07;;
77466;SDS011;66564;42.482;25.548;2023-08-01T10:19:13;11.70;;;9.38;;
77466;SDS011;66564;42.482;25.548;2023-08-01T10:21:39;12.38;;;8.13;;
77466;SDS011;66564;42.482;25.548;2023-08-01T10:24:06;11.50;;;8.60;;
77466;SDS011;66564;42.482;25.548;2023-08-01T10:26:32;9.70;;;8.07;;
77466;SDS011;66564;42.482;25.548;2023-08-01T10:28:58;9.15;;;8.25;;
77466;SDS011;66564;42.482;25.548;2023-08-01T10:31:26;10.65;;;8.57;;
77466;SDS011;66564;42.482;25.548;2023-08-01T10:33:51;10.57;;;8.38;;
77466;SDS011;66564;42.482;25.548;2023-08-01T10:36:19;15.23;;;8.23;;
77466;SDS011;66564;42.482;25.548;2023-08-01T10:38:52;10.43;;;8.98;;
77466;SDS011;66564;42.482;25.548;2023-08-01T10:41:24;13.77;;;8.32;;
77466;SDS011;66564;42.482;25.548;2023-08-01T10:46:50;12.13;;;8.32;;
77466;SDS011;66564;42.482;25.548;2023-08-01T10:49:32;10.23;;;7.97;;
77466;SDS011;66564;42.482;25.548;2023-08-01T10:52:02;9.90;;;8.90;;
77466;SDS011;66564;42.482;25.548;2023-08-01T10:57:27;8.90;;;7.88;;
77466;SDS011;66564;42.482;25.548;2023-08-01T10:59:54;10.77;;;8.43;;
77466;SDS011;66564;42.482;25.548;2023-08-01T11:02:23;13.13;;;8.38;;
77466;SDS011;66564;42.482;25.548;2023-08-01T11:07:28;10.40;;;8.98;;
77466;SDS011;66564;42.482;25.548;2023-08-01T11:12:28;9.18;;;7.88;;
77466;SDS011;66564;42.482;25.548;2023-08-01T11:14:59;9.57;;;7.75;;
77466;SDS011;66564;42.482;25.548;2023-08-01T11:17:25;11.70;;;8.30;;
77466;SDS011;66564;42.482;25.548;2023-08-01T11:19:51;8.77;;;7.95;;
77466;SDS011;66564;42.482;25.548;2023-08-01T11:22:16;13.88;;;9.40;;
77466;SDS011;66564;42.482;25.548;2023-08-01T11:24:49;11.45;;;8.32;;
77466;SDS011;66564;42.482;25.548;2023-08-01T11:27:15;10.48;;;7.57;;
77466;SDS011;66564;42.482;25.548;2023-08-01T11:29:43;8.10;;;7.35;;
77466;SDS011;66564;42.482;25.548;2023-08-01T11:32:09;10.15;;;7.82;;
77466;SDS011;66564;42.482;25.548;2023-08-01T11:34:40;21.92;;;9.18;;
77466;SDS011;66564;42.482;25.548;2023-08-01T11:37:09;13.32;;;7.68;;
77466;SDS011;66564;42.482;25.548;2023-08-01T11:39:35;8.52;;;7.72;;
77466;SDS011;66564;42.482;25.548;2023-08-01T11:42:01;9.00;;;7.82;;
77466;SDS011;66564;42.482;25.548;2023-08-01T11:44:28;9.63;;;7.55;;
77466;SDS011;66564;42.482;25.548;2023-08-01T11:46:54;11.20;;;8.18;;
77466;SDS011;66564;42.482;25.548;2023-08-01T11:49:20;10.07;;;7.70;;
77466;SDS011;66564;42.482;25.548;2023-08-01T11:51:46;8.68;;;7.78;;
77466;SDS011;66564;42.482;25.548;2023-08-01T11:54:11;9.82;;;7.93;;
77466;SDS011;66564;42.482;25.548;2023-08-01T11:56:39;8.68;;;7.78;;
77466;SDS011;66564;42.482;25.548;2023-08-01T11:59:13;9.27;;;8.18;;
77466;SDS011;66564;42.482;25.548;2023-08-01T12:01:40;8.82;;;7.93;;
77466;SDS011;66564;42.482;25.548;2023-08-01T12:04:06;10.05;;;7.82;;
77466;SDS011;66564;42.482;25.548;2023-08-01T12:06:32;12.82;;;8.73;;
77466;SDS011;66564;42.482;25.548;2023-08-01T12:09:05;8.57;;;7.50;;
77466;SDS011;66564;42.482;25.548;2023-08-01T12:11:35;8.82;;;7.40;;
77466;SDS011;66564;42.482;25.548;2023-08-01T12:14:05;10.55;;;8.18;;
77466;SDS011;66564;42.482;25.548;2023-08-01T12:16:34;9.23;;;7.57;;
77466;SDS011;66564;42.482;25.548;2023-08-01T12:19:00;7.85;;;7.03;;
77466;SDS011;66564;42.482;25.548;2023-08-01T12:21:25;8.52;;;7.63;;
77466;SDS011;66564;42.482;25.548;2023-08-01T12:23:51;8.45;;;7.53;;
77466;SDS011;66564;42.482;25.548;2023-08-01T12:26:16;8.10;;;7.30;;
77466;SDS011;66564;42.482;25.548;2023-08-01T12:28:42;10.35;;;7.30;;
77466;SDS011;66564;42.482;25.548;2023-08-01T12:31:07;8.80;;;7.78;;
77466;SDS011;66564;42.482;25.548;2023-08-01T12:33:32;9.65;;;8.23;;
77466;SDS011;66564;42.482;25.548;2023-08-01T12:35:59;8.65;;;7.55;;
77466;SDS011;66564;42.482;25.548;2023-08-01T12:38:25;9.90;;;7.65;;
77466;SDS011;66564;42.482;25.548;2023-08-01T12:40:51;8.65;;;7.32;;
77466;SDS011;66564;42.482;25.548;2023-08-01T12:43:16;7.75;;;6.65;;
77466;SDS011;66564;42.482;25.548;2023-08-01T12:45:43;9.32;;;7.13;;
77466;SDS011;66564;42.482;25.548;2023-08-01T12:48:09;7.93;;;7.13;;
77466;SDS011;66564;42.482;25.548;2023-08-01T12:50:34;9.10;;;8.15;;
77466;SDS011;66564;42.482;25.548;2023-08-01T12:52:59;9.32;;;8.02;;
77466;SDS011;66564;42.482;25.548;2023-08-01T12:55:25;9.52;;;7.60;;
77466;SDS011;66564;42.482;25.548;2023-08-01T12:57:51;8.35;;;7.55;;
77466;SDS011;66564;42.482;25.548;2023-08-01T13:00:16;9.40;;;8.00;;
77466;SDS011;66564;42.482;25.548;2023-08-01T13:02:43;8.82;;;7.50;;
77466;SDS011;66564;42.482;25.548;2023-08-01T13:05:09;8.57;;;7.65;;
77466;SDS011;66564;42.482;25.548;2023-08-01T13:07:35;8.10;;;7.30;;
77466;SDS011;66564;42.482;25.548;2023-08-01T13:10:01;9.63;;;7.82;;
77466;SDS011;66564;42.482;25.548;2023-08-01T13:12:27;9.68;;;7.60;;
77466;SDS011;66564;42.482;25.548;2023-08-01T13:14:52;11.23;;;8.23;;
77466;SDS011;66564;42.482;25.548;2023-08-01T13:17:18;8.25;;;7.43;;
77466;SDS011;66564;42.482;25.548;2023-08-01T13:19:44;8.10;;;7.30;;
77466;SDS011;66564;42.482;25.548;2023-08-01T13:22:09;9.18;;;7.95;;
77466;SDS011;66564;42.482;25.548;2023-08-01T13:24:35;9.85;;;7.72;;
77466;SDS011;66564;42.482;25.548;2023-08-01T13:27:00;8.45;;;7.47;;
77466;SDS011;66564;42.482;25.548;2023-08-01T13:29:26;8.40;;;7.60;;
77466;SDS011;66564;42.482;25.548;2023-08-01T13:31:51;8.68;;;7.75;;
77466;SDS011;66564;42.482;25.548;2023-08-01T13:34:16;8.80;;;7.38;;
77466;SDS011;66564;42.482;25.548;2023-08-01T13:36:43;8.85;;;7.18;;
77466;SDS011;66564;42.482;25.548;2023-08-01T13:39:08;10.18;;;7.80;;
77466;SDS011;66564;42.482;25.548;2023-08-01T13:41:34;8.45;;;7.28;;
77466;SDS011;66564;42.482;25.548;2023-08-01T13:44:00;8.55;;;7.55;;
77466;SDS011;66564;42.482;25.548;2023-08-01T13:46:26;9.07;;;7.38;;
77466;SDS011;66564;42.482;25.548;2023-08-01T13:48:52;8.57;;;7.75;;
77466;SDS011;66564;42.482;25.548;2023-08-01T13:51:17;9.38;;;7.43;;
77466;SDS011;66564;42.482;25.548;2023-08-01T13:53:43;9.40;;;7.38;;
77466;SDS011;66564;42.482;25.548;2023-08-01T13:56:08;8.82;;;7.63;;
77466;SDS011;66564;42.482;25.548;2023-08-01T13:58:38;8.20;;;7.35;;
77466;SDS011;66564;42.482;25.548;2023-08-01T14:01:06;8.77;;;7.05;;
77466;SDS011;66564;42.482;25.548;2023-08-01T14:03:36;8.57;;;7.68;;
77466;SDS011;66564;42.482;25.548;2023-08-01T14:06:04;8.75;;;7.10;;
77466;SDS011;66564;42.482;25.548;2023-08-01T14:08:31;9.30;;;7.35;;
77466;SDS011;66564;42.482;25.548;2023-08-01T14:10:56;7.90;;;6.97;;
77466;SDS011;66564;42.482;25.548;2023-08-01T14:13:21;9.25;;;7.53;;
77466;SDS011;66564;42.482;25.548;2023-08-01T14:15:47;11.50;;;7.25;;
77466;SDS011;66564;42.482;25.548;2023-08-01T14:18:12;12.07;;;7.22;;
77466;SDS011;66564;42.482;25.548;2023-08-01T14:20:38;12.40;;;7.18;;
77466;SDS011;66564;42.482;25.548;2023-08-01T14:23:03;7.88;;;7.07;;
77466;SDS011;66564;42.482;25.548;2023-08-01T14:25:29;8.50;;;7.32;;
77466;SDS011;66564;42.482;25.548;2023-08-01T14:27:54;7.53;;;6.82;;
77466;SDS011;66564;42.482;25.548;2023-08-01T14:30:19;8.00;;;7.20;;
77466;SDS011;66564;42.482;25.548;2023-08-01T14:32:45;9.95;;;7.20;;
77466;SDS011;66564;42.482;25.548;2023-08-01T14:35:10;7.63;;;6.57;;
77466;SDS011;66564;42.482;25.548;2023-08-01T14:37:37;10.85;;;7.70;;
77466;SDS011;66564;42.482;25.548;2023-08-01T14:40:05;8.10;;;6.75;;
77466;SDS011;66564;42.482;25.548;2023-08-01T14:42:31;9.02;;;7.78;;